| time (UTC) | temp C | wind direction | speed KPH | gust KPH | rain 1hr cm | rain 24hr cm | rain mn cm | humidity % | barometer mb |
| 20260502163047 | 20 | 0.0 | 0.0 | 0.00 | 2.13 | 0.03 | 42 | 1019.0 | |
| 20260502162531 | 20 | 0.0 | 0.0 | 0.00 | 2.13 | 0.03 | 41 | 1019.0 | |
| 20260502162026 | 19 | 0.0 | 0.0 | 0.00 | 2.13 | 0.03 | 40 | 1019.0 | |
| 20260502161525 | 19 | 0.0 | 0.0 | 0.00 | 2.13 | 0.03 | 40 | 1019.0 | |
| 20260502161026 | 19 | 0.0 | 0.0 | 0.00 | 2.13 | 0.03 | 38 | 1019.0 | |
| 20260502160527 | 19 | 0.0 | 0.0 | 0.00 | 2.13 | 0.03 | 39 | 1019.0 | |
| 20260502151943 | 17 | 0.0 | 0.0 | 0.03 | 2.13 | 0.03 | 23 | 1018.6 | |
| 20260502151430 | 17 | 0.0 | 0.0 | 0.03 | 2.13 | 0.03 | 21 | 1018.6 | |
| 20260502150926 | 17 | 0.0 | 0.0 | 0.03 | 2.13 | 0.03 | 19 | 1018.8 | |
| 20260502150426 | 17 | 0.0 | 0.0 | 0.03 | 2.13 | 0.03 | 15 | 1018.8 | |
| 20260502123421 | 13 | 0.0 | 0.0 | 0.00 | 2.11 | 0.00 | 100 | 1017.0 | |
| 20260502122853 | 13 | 0.0 | 0.0 | 0.00 | 2.11 | 0.00 | 100 | 1017.0 | |
| 20260502122348 | 13 | 0.0 | 0.0 | 0.00 | 2.11 | 0.00 | 100 | 1016.6 | |
| 20260502121825 | 13 | 0.0 | 0.0 | 0.00 | 2.11 | 0.00 | 100 | 1016.6 | |
| 20260502121555 | 13 | 0.0 | 0.0 | 0.00 | 2.11 | 0.00 | 100 | 1016.4 | |
| 20260502121049 | 13 | 0.0 | 0.0 | 0.00 | 2.11 | 0.00 | 100 | 1016.4 | |
| 20260502120301 | 13 | 0.0 | 0.0 | 0.00 | 2.11 | 0.00 | 100 | 1016.4 | |
| 20260502115753 | 13 | 0.0 | 0.0 | 0.00 | 2.11 | 0.00 | 100 | 1016.4 | |
| 20260502115230 | 13 | 0.0 | 0.0 | 0.00 | 2.11 | 0.00 | 100 | 1016.4 | |
| 20260502114959 | 13 | 0.0 | 0.0 | 0.00 | 2.11 | 0.00 | 100 | 1016.4 | |
| 20260502114227 | 13 | 0.0 | 0.0 | 0.00 | 2.11 | 0.00 | 100 | 1016.2 | |
| 20260502113936 | 13 | 0.0 | 0.0 | 0.00 | 2.11 | 0.00 | 100 | 1016.2 | |
| 20260502113200 | 13 | 0.0 | 0.0 | 0.00 | 2.11 | 0.00 | 100 | 1016.2 | |
| 20260502112639 | 13 | 0.0 | 0.0 | 0.00 | 2.11 | 0.00 | 100 | 1015.9 | |
| 20260502112124 | 13 | 0.0 | 0.0 | 0.00 | 2.11 | 0.00 | 100 | 1015.9 | |
| 20260502111621 | 13 | 0.0 | 0.0 | 0.00 | 2.11 | 0.00 | 100 | 1015.9 | |
| 20260502111350 | 13 | 0.0 | 0.0 | 0.00 | 2.11 | 0.00 | 100 | 1015.8 | |
| 20260502110615 | 13 | 0.0 | 0.0 | 0.00 | 2.11 | 0.00 | 100 | 1015.8 | |
| 20260502110039 | 13 | 0.0 | 0.0 | 0.00 | 2.11 | 0.00 | 100 | 1015.8 | |
| 20260502105537 | 13 | 0.0 | 0.0 | 0.00 | 2.11 | 0.00 | 100 | 1015.9 | |
| 20260502105023 | 13 | 0.0 | 0.0 | 0.00 | 2.11 | 0.00 | 100 | 1015.9 | |
| 20260502104512 | 13 | 0.0 | 0.0 | 0.00 | 2.11 | 0.00 | 100 | 1015.9 | |
| 20260502103935 | 13 | 0.0 | 0.0 | 0.00 | 2.11 | 0.00 | 100 | 1015.8 | |
| 20260502103425 | 13 | 0.0 | 0.0 | 0.00 | 2.11 | 0.00 | 100 | 1015.8 | |
| 20260502102922 | 13 | 0.0 | 0.0 | 0.00 | 2.11 | 0.00 | 100 | 1015.8 | |
| 20260502102418 | 13 | 0.0 | 0.0 | 0.00 | 2.11 | 0.00 | 100 | 1015.5 | |
| 20260502101846 | 13 | 0.0 | 0.0 | 0.00 | 2.11 | 0.00 | 100 | 1015.5 | |
| 20260502101603 | 13 | 0.0 | 0.0 | 0.00 | 2.11 | 0.00 | 100 | 1015.5 | |
| 20260502100831 | 13 | 0.0 | 0.0 | 0.00 | 2.11 | 0.00 | 100 | 1015.2 | |
| 20260502100323 | 13 | 0.0 | 0.0 | 0.00 | 2.11 | 0.00 | 100 | 1015.2 | |
| 20260502091123 | 13 | 0.0 | 0.0 | 0.00 | 2.11 | 0.00 | 100 | 1014.3 | |
| 20260502090624 | 13 | 0.0 | 0.0 | 0.00 | 2.11 | 0.00 | 100 | 1014.3 | |
| 20260502090108 | 13 | 0.0 | 0.0 | 0.00 | 2.11 | 0.00 | 100 | 1014.3 | |
| 20260502071129 | 14 | 0.0 | 0.0 | 0.00 | 2.11 | 0.00 | 100 | 1014.0 | |
| 20260502070628 | 14 | 0.0 | 0.0 | 0.00 | 2.11 | 0.00 | 100 | 1014.0 | |
| 20260502070321 | 14 | 0.0 | 0.0 | 0.00 | 2.11 | 0.00 | 100 | 1014.0 | |
| 20260502065803 | 14 | 0.0 | 0.0 | 0.00 | 2.11 | 0.00 | 100 | 1013.9 | |
| 20260502065025 | 14 | 0.0 | 0.0 | 0.00 | 2.11 | 0.00 | 100 | 1013.9 | |
| 20260502064518 | 14 | 0.0 | 0.0 | 0.00 | 2.11 | 0.00 | 100 | 1013.9 | |
| 20260502064012 | 14 | 0.0 | 0.0 | 0.00 | 2.11 | 0.00 | 100 | 1014.0 | |
| 20260502063448 | 14 | 0.0 | 0.0 | 0.00 | 2.11 | 0.00 | 100 | 1014.0 | |
| 20260502062928 | 14 | 0.0 | 0.0 | 0.00 | 2.11 | 0.00 | 100 | 1014.0 | |
| 20260502062418 | 14 | 0.0 | 0.0 | 0.00 | 2.11 | 0.00 | 100 | 1013.9 | |
| 20260502061829 | 14 | 0.0 | 0.0 | 0.00 | 2.11 | 0.00 | 100 | 1013.9 | |
| 20260502061601 | 14 | 0.0 | 0.0 | 0.00 | 2.11 | 0.00 | 100 | 1013.8 | |
| 20260502060826 | 14 | 0.0 | 0.0 | 0.00 | 2.11 | 0.00 | 100 | 1013.8 | |
| 20260502060256 | 14 | 0.0 | 0.0 | 0.00 | 2.11 | 0.00 | 100 | 1013.8 | |
| 20260502055724 | 14 | 0.0 | 0.0 | 0.00 | 2.11 | 0.00 | 100 | 1013.8 | |
| 20260502055225 | 14 | 0.0 | 0.0 | 0.00 | 2.11 | 0.00 | 100 | 1013.8 | |
| 20260502054635 | 14 | 0.0 | 0.0 | 0.00 | 2.11 | 0.00 | 100 | 1013.8 | |
| 20260502054126 | 14 | 0.0 | 0.0 | 0.00 | 2.11 | 0.00 | 100 | 1013.5 | |
| 20260502053604 | 14 | 0.0 | 0.0 | 0.00 | 2.11 | 0.00 | 100 | 1013.5 | |
| 20260502053023 | 14 | 0.0 | 0.0 | 0.00 | 2.11 | 0.00 | 100 | 1013.5 | |
| 20260502052522 | 14 | 0.0 | 0.0 | 0.00 | 2.11 | 0.00 | 100 | 1013.4 | |
| 20260502051933 | 14 | 0.0 | 0.0 | 0.00 | 2.11 | 0.00 | 100 | 1013.4 | |
| 20260502051428 | 14 | 0.0 | 0.0 | 0.00 | 2.11 | 0.00 | 100 | 1013.4 | |
| 20260502050926 | 14 | 0.0 | 0.0 | 0.00 | 2.11 | 0.00 | 100 | 1013.6 | |
| 20260502050421 | 14 | 0.0 | 0.0 | 0.00 | 2.11 | 0.00 | 100 | 1013.6 | |
| 20260502045913 | 14 | 0.0 | 0.0 | 0.00 | 2.11 | 4.24 | 100 | 1013.6 | |
| 20260502045405 | 14 | 0.0 | 0.0 | 0.00 | 2.11 | 4.24 | 100 | 1013.5 | |
| 20260502044856 | 14 | 0.0 | 0.0 | 0.00 | 2.11 | 4.24 | 100 | 1013.5 | |
| 20260502044343 | 14 | 0.0 | 0.0 | 0.00 | 2.11 | 4.24 | 100 | 1013.5 | |
| 20260502043834 | 14 | 0.0 | 0.0 | 0.00 | 2.11 | 4.24 | 100 | 1013.3 | |
| 20260502043328 | 14 | 0.0 | 0.0 | 0.00 | 2.11 | 4.24 | 100 | 1013.3 | |
| 20260502042821 | 14 | 0.0 | 0.0 | 0.00 | 2.11 | 4.24 | 100 | 1013.7 | |
| 20260502042242 | 14 | 0.0 | 0.0 | 0.00 | 2.11 | 4.24 | 100 | 1013.7 | |
| 20260502041727 | 14 | 0.0 | 0.0 | 0.00 | 2.11 | 4.24 | 100 | 1013.7 | |
| 20260502041226 | 14 | 0.0 | 0.0 | 0.00 | 2.11 | 4.24 | 100 | 1013.3 | |
| 20260502040712 | 14 | 0.0 | 0.0 | 0.00 | 2.11 | 4.24 | 100 | 1013.3 | |
| 20260502040425 | 14 | 0.0 | 0.0 | 0.00 | 2.11 | 4.24 | 100 | 1013.3 | |
| 20260502035644 | 14 | 0.0 | 0.0 | 0.00 | 2.11 | 4.24 | 100 | 1013.3 | |
| 20260502035137 | 14 | 0.0 | 0.0 | 0.00 | 2.11 | 4.24 | 100 | 1013.3 | |
| 20260502034904 | 14 | 0.0 | 0.0 | 0.00 | 2.11 | 4.24 | 100 | 1013.3 | |
| 20260502034344 | 14 | 0.0 | 0.0 | 0.00 | 2.11 | 4.24 | 100 | 1013.2 | |
| 20260502033553 | 15 | 0.0 | 0.0 | 0.00 | 2.11 | 4.24 | 100 | 1013.2 | |
| 20260502033030 | 14 | 0.0 | 0.0 | 0.00 | 2.11 | 4.24 | 100 | 1013.2 | |
| 20260502032526 | 14 | 0.0 | 0.0 | 0.00 | 2.11 | 4.24 | 100 | 1012.7 | |
| 20260502032020 | 15 | 0.0 | 0.0 | 0.00 | 2.11 | 4.24 | 100 | 1012.7 | |
| 20260502031509 | 15 | 0.0 | 0.0 | 0.00 | 2.11 | 4.24 | 100 | 1012.7 | |
| 20260502030954 | 15 | 0.0 | 0.0 | 0.00 | 2.11 | 4.24 | 100 | 1012.2 | |
| 20260502030454 | 15 | 0.0 | 0.0 | 0.00 | 2.11 | 4.24 | 100 | 1012.2 | |
| 20260502030203 | 15 | 0.0 | 0.0 | 0.00 | 2.11 | 4.24 | 100 | 1012.2 | |
| 20260502025429 | 15 | 0.0 | 0.0 | 0.03 | 2.11 | 4.24 | 100 | 1012.2 | |
| 20260502024918 | 15 | 0.0 | 0.0 | 0.03 | 2.11 | 4.24 | 100 | 1012.2 | |
| 20260502024649 | 15 | 0.0 | 0.0 | 0.03 | 2.11 | 4.24 | 100 | 1012.2 | |
| 20260502023915 | 15 | 0.0 | 0.0 | 0.03 | 2.11 | 4.24 | 100 | 1011.7 | |
| 20260502023413 | 15 | 0.0 | 0.0 | 0.05 | 2.11 | 4.24 | 100 | 1011.7 | |
| 20260502022907 | 15 | 0.0 | 0.0 | 0.05 | 2.11 | 4.24 | 100 | 1011.7 | |
| 20260502021837 | 15 | 0.0 | 0.0 | 0.05 | 2.11 | 4.24 | 100 | 1011.2 | |
| 20260502021333 | 15 | 0.0 | 0.0 | 0.05 | 2.11 | 4.24 | 100 | 1011.2 | |
| 20260502020832 | 15 | 0.0 | 0.0 | 0.05 | 2.11 | 4.24 | 100 | 1011.1 | |
| 20260502020312 | 15 | 0.0 | 0.0 | 0.05 | 2.11 | 4.24 | 100 | 1011.1 | |
| 20260502020040 | 15 | 0.0 | 0.0 | 0.05 | 2.11 | 4.24 | 100 | 1011.2 | |
| 20260502015534 | 15 | 0.0 | 0.0 | 0.05 | 2.08 | 4.22 | 100 | 1011.2 | |
| 20260502014801 | 15 | 0.0 | 0.0 | 0.05 | 2.08 | 4.22 | 100 | 1011.2 | |
| 20260502014245 | 15 | 0.0 | 0.0 | 0.08 | 2.08 | 4.22 | 100 | 1011.2 | |
| 20260502014010 | 15 | 0.0 | 0.0 | 0.05 | 2.06 | 4.19 | 100 | 1011.2 | |
| 20260502013227 | 15 | 0.0 | 0.0 | 0.05 | 2.06 | 4.19 | 100 | 1011.2 | |
| 20260502012725 | 15 | 0.0 | 0.0 | 0.05 | 2.06 | 4.19 | 100 | 1011.0 | |
| 20260502012224 | 15 | 0.0 | 0.0 | 0.05 | 2.06 | 4.19 | 100 | 1011.0 | |
| 20260502011929 | 15 | 0.0 | 0.0 | 0.08 | 2.06 | 4.19 | 100 | 1011.0 | |
| 20260502011152 | 16 | 0.0 | 0.0 | 0.08 | 2.06 | 4.19 | 100 | 1010.5 | |
| 20260502010634 | 16 | 0.0 | 0.0 | 0.08 | 2.06 | 4.19 | 100 | 1010.5 | |
| 20260502010125 | 16 | 0.0 | 0.0 | 0.08 | 2.06 | 4.19 | 100 | 1010.5 | |
| 20260502005612 | 16 | 0.0 | 0.0 | 0.08 | 2.06 | 4.19 | 100 | 1010.2 | |
| 20260502005314 | 16 | 0.0 | 0.0 | 0.08 | 2.03 | 4.17 | 100 | 1010.2 | |
| 20260502004543 | 16 | 0.0 | 0.0 | 0.18 | 2.03 | 4.17 | 100 | 1010.2 | |
| 20260502004033 | 16 | 0.0 | 0.0 | 0.25 | 2.01 | 4.14 | 100 | 1010.1 | |
| 20260502003532 | 16 | 0.0 | 0.0 | 0.33 | 2.01 | 4.14 | 100 | 1010.1 | |
| 20260502003254 | 16 | 0.0 | 0.0 | 0.36 | 2.01 | 4.14 | 100 | 1010.1 | |
| 20260502002752 | 16 | 0.0 | 0.0 | 0.38 | 2.01 | 4.14 | 100 | 1009.6 | |
| 20260502002012 | 16 | 0.0 | 0.0 | 0.38 | 2.01 | 4.14 | 100 | 1009.6 | |
| 20260502001506 | 16 | 0.0 | 0.0 | 0.36 | 1.98 | 4.11 | 100 | 1009.6 | |
| 20260502001000 | 16 | 0.0 | 0.0 | 0.36 | 1.98 | 4.11 | 100 | 1009.6 | |
| 20260502000454 | 16 | 0.0 | 0.0 | 0.38 | 1.98 | 4.11 | 100 | 1009.6 | |
| 20260501235937 | 16 | 0.0 | 0.0 | 0.43 | 1.98 | 4.11 | 100 | 1009.6 | |
| 20260501235428 | 16 | 0.0 | 0.0 | 0.48 | 1.96 | 4.09 | 100 | 1009.6 | |
| 20260501234919 | 16 | 0.0 | 0.0 | 0.64 | 1.93 | 4.06 | 100 | 1009.6 | |
| 20260501234625 | 16 | 0.0 | 0.0 | 0.56 | 1.83 | 3.99 | 100 | 1009.6 | |
| 20260501233835 | 16 | 0.0 | 0.0 | 0.48 | 1.73 | 3.86 | 100 | 1009.6 | |
| 20260501232802 | 16 | 0.0 | 0.0 | 0.46 | 1.63 | 3.76 | 100 | 1007.6 | |
| 20260501232241 | 16 | 0.0 | 0.0 | 0.51 | 1.63 | 3.76 | 100 | 1007.6 | |
| 20260501231730 | 16 | 0.0 | 0.0 | 0.53 | 1.63 | 3.76 | 100 | 1007.6 | |
| 20260501231223 | 16 | 0.0 | 0.0 | 0.53 | 1.63 | 3.76 | 100 | 1008.3 | |
| 20260501230719 | 17 | 0.0 | 0.0 | 0.51 | 1.60 | 3.73 | 100 | 1008.3 | |
| 20260501230218 | 17 | 0.0 | 0.0 | 0.48 | 1.57 | 3.71 | 100 | 1008.3 | |
| 20260501225711 | 17 | 0.0 | 0.0 | 0.43 | 1.52 | 3.66 | 100 | 1008.4 | |
| 20260501225202 | 17 | 0.0 | 0.0 | 0.28 | 1.35 | 3.53 | 100 | 1008.4 | |
| 20260501224649 | 17 | 0.0 | 0.0 | 0.23 | 1.30 | 3.43 | 100 | 1008.4 | |
| 20260501224137 | 17 | 0.0 | 0.0 | 0.20 | 1.27 | 3.40 | 100 | 1008.4 | |
| 20260501223900 | 17 | 0.0 | 0.0 | 0.15 | 1.22 | 3.35 | 100 | 1008.4 | |
| 20260501222836 | 17 | 0.0 | 0.0 | 0.13 | 1.17 | 3.30 | 100 | 1008.0 | |
| 20260501222058 | 17 | 0.0 | 0.0 | 0.05 | 1.09 | 3.23 | 100 | 1008.0 | |
| 20260501221536 | 17 | 0.0 | 0.0 | 0.08 | 1.09 | 3.23 | 100 | 1008.0 | |
| 20260501221300 | 17 | 0.0 | 0.0 | 0.08 | 1.09 | 3.23 | 100 | 1007.6 | |
| 20260501220524 | 17 | 0.0 | 0.0 | 0.08 | 1.09 | 3.23 | 100 | 1007.6 | |
| 20260501220005 | 17 | 0.0 | 0.0 | 0.08 | 1.09 | 3.23 | 100 | 1007.6 | |
| 20260501215729 | 17 | 0.0 | 0.0 | 0.10 | 1.09 | 3.23 | 100 | 1008.1 | |
| 20260501214948 | 17 | 0.0 | 0.0 | 0.08 | 1.07 | 3.20 | 100 | 1008.1 | |
| 20260501214431 | 17 | 0.0 | 0.0 | 0.08 | 1.07 | 3.20 | 100 | 1008.1 | |
| 20260501213926 | 17 | 0.0 | 0.0 | 0.10 | 1.07 | 3.20 | 100 | 1008.6 | |
| 20260501213358 | 17 | 0.0 | 0.0 | 0.15 | 1.07 | 3.20 | 100 | 1008.6 | |
| 20260501212851 | 17 | 0.0 | 0.0 | 0.15 | 1.04 | 3.20 | 100 | 1008.6 | |
| 20260501212345 | 17 | 0.0 | 0.0 | 0.15 | 1.04 | 3.17 | 100 | 1008.1 | |
| 20260501211840 | 17 | 0.0 | 0.0 | 0.15 | 1.02 | 3.17 | 100 | 1008.1 | |
| 20260501211334 | 17 | 0.0 | 0.0 | 0.18 | 1.02 | 3.15 | 100 | 1008.1 | |
| 20260501210818 | 17 | 0.0 | 0.0 | 0.20 | 1.02 | 3.15 | 100 | 1008.1 | |
| 20260501210304 | 17 | 0.0 | 0.0 | 0.23 | 1.02 | 3.15 | 100 | 1008.1 | |
| 20260501210006 | 17 | 0.0 | 0.0 | 0.23 | 1.02 | 3.15 | 100 | 1008.1 | |
| 20260501205234 | 17 | 0.0 | 0.0 | 0.23 | 0.99 | 3.12 | 100 | 1008.1 | |
| 20260501204957 | 17 | 0.0 | 0.0 | 0.23 | 0.99 | 3.12 | 100 | 1008.1 | |
| 20260501204158 | 17 | 0.0 | 0.0 | 0.20 | 0.97 | 3.12 | 100 | 1006.9 | |
| 20260501203651 | 17 | 0.0 | 0.0 | 0.20 | 0.97 | 3.10 | 100 | 1006.9 | |
| 20260501203145 | 17 | 0.0 | 0.0 | 0.15 | 0.91 | 3.05 | 100 | 1006.9 | |
| 20260501202640 | 17 | 0.0 | 0.0 | 0.13 | 0.89 | 3.02 | 100 | 1006.6 | |
| 20260501202404 | 17 | 0.0 | 0.0 | 0.13 | 0.86 | 3.00 | 100 | 1006.6 | |
| 20260501201616 | 17 | 0.0 | 0.0 | 0.13 | 0.84 | 2.97 | 100 | 1006.6 | |
| 20260501201110 | 17 | 0.0 | 0.0 | 0.10 | 0.81 | 2.97 | 100 | 1007.5 | |
| 20260501200532 | 17 | 0.0 | 0.0 | 0.18 | 0.81 | 2.95 | 100 | 1007.5 | |
| 20260501200033 | 18 | 0.0 | 0.0 | 0.30 | 0.79 | 2.92 | 100 | 1007.5 | |
| 20260501195530 | 17 | 0.0 | 0.0 | 0.30 | 0.76 | 2.92 | 100 | 1007.5 | |
| 20260501195256 | 17 | 22 | 17.7 | 19.3 | 0.33 | 0.76 | 2.90 | 100 | 1007.5 |
| 20260501194458 | 17 | 22 | 17.7 | 33.8 | 0.33 | 0.76 | 2.90 | 100 | 1007.5 |
| 20260501193957 | 17 | 22 | 17.7 | 33.8 | 0.36 | 0.76 | 2.90 | 100 | 1007.0 |
| 20260501193456 | 17 | 32 | 17.7 | 33.8 | 0.36 | 0.76 | 2.90 | 100 | 1007.0 |
| 20260501192955 | 17 | 32 | 17.7 | 33.8 | 0.38 | 0.76 | 2.90 | 100 | 1007.0 |
| 20260501192450 | 17 | 37 | 20.9 | 33.8 | 0.38 | 0.76 | 2.90 | 100 | 1006.9 |
| 20260501191943 | 17 | 31 | 20.9 | 33.8 | 0.38 | 0.74 | 2.87 | 100 | 1006.9 |
| 20260501191441 | 17 | 40 | 17.7 | 33.8 | 0.38 | 0.71 | 2.84 | 100 | 1006.9 |
| 20260501191213 | 17 | 63 | 12.9 | 20.9 | 0.43 | 0.71 | 2.84 | 100 | 1008.0 |
| 20260501190712 | 17 | 38 | 11.3 | 17.7 | 0.36 | 0.61 | 2.74 | 100 | 1008.0 |
| 20260501185940 | 17 | 5 | 11.3 | 20.9 | 0.20 | 0.46 | 2.62 | 100 | 1008.0 |
| 20260501185441 | 17 | 28 | 16.1 | 32.2 | 0.20 | 0.46 | 2.59 | 100 | 1007.0 |
| 20260501184940 | 17 | 26 | 20.9 | 35.4 | 0.23 | 0.43 | 2.57 | 100 | 1007.0 |
| 20260501184441 | 17 | 67 | 20.9 | 35.4 | 0.33 | 0.43 | 2.57 | 100 | 1007.0 |
| 20260501183939 | 17 | 76 | 20.9 | 33.8 | 0.38 | 0.41 | 2.54 | 100 | 1006.3 |
| 20260501183439 | 17 | 65 | 24.1 | 38.6 | 0.41 | 0.41 | 2.54 | 100 | 1006.3 |
| 20260501182940 | 18 | 51 | 25.7 | 38.6 | 0.38 | 0.38 | 2.54 | 100 | 1006.3 |
| 20260501182434 | 18 | 70 | 25.7 | 37.0 | 0.38 | 0.38 | 2.51 | 100 | 1007.1 |
| 20260501181922 | 18 | 73 | 22.5 | 35.4 | 0.36 | 0.36 | 2.49 | 100 | 1007.1 |
| 20260501181411 | 18 | 68 | 16.1 | 30.6 | 0.33 | 0.33 | 2.46 | 100 | 1007.1 |
| 20260501180909 | 18 | 33 | 11.3 | 27.4 | 0.28 | 0.28 | 2.41 | 100 | 1007.7 |
| 20260501180410 | 18 | 304 | 14.5 | 35.4 | 0.25 | 0.25 | 2.39 | 100 | 1007.7 |
| 20260501175908 | 18 | 37 | 19.3 | 35.4 | 0.25 | 0.25 | 2.39 | 100 | 1007.7 |
| 20260501175641 | 18 | 48 | 24.1 | 35.4 | 0.25 | 0.25 | 2.39 | 100 | 1007.5 |
| 20260501175140 | 18 | 71 | 24.1 | 35.4 | 0.18 | 0.18 | 2.34 | 100 | 1007.5 |
| 20260501174411 | 18 | 76 | 19.3 | 32.2 | 0.08 | 0.08 | 2.24 | 100 | 1007.5 |
| 20260501173909 | 18 | 28 | 14.5 | 27.4 | 0.03 | 0.03 | 2.16 | 100 | 1008.1 |
| 20260501173409 | 18 | 5 | 17.7 | 0.0 | 0.00 | 0.00 | 2.13 | 100 | 1008.1 |
| 20260501172812 | 18 | 15 | 17.7 | 33.8 | 0.43 | 2.18 | 2.11 | 100 | 1008.1 |
| 20260501172311 | 18 | 32 | 19.3 | 33.8 | 0.43 | 2.18 | 2.11 | 100 | 1008.1 |
| 20260501172038 | 18 | 32 | 16.1 | 27.4 | 0.43 | 2.16 | 2.08 | 100 | 1008.1 |
| 20260501171307 | 18 | 21 | 12.9 | 27.4 | 0.46 | 2.16 | 2.08 | 100 | 1008.1 |
| 20260501170807 | 18 | 5 | 16.1 | 27.4 | 0.51 | 2.11 | 2.03 | 100 | 1008.1 |
| 20260501170538 | 18 | 26 | 17.7 | 33.8 | 0.84 | 2.08 | 2.01 | 100 | 1008.1 |
| 20260501165807 | 18 | 20 | 17.7 | 33.8 | 1.19 | 2.06 | 1.98 | 100 | 1008.6 |
| 20260501165307 | 18 | 51 | 20.9 | 33.8 | 1.27 | 2.06 | 1.98 | 100 | 1008.6 |
| 20260501165037 | 18 | 21 | 22.5 | 33.8 | 1.24 | 2.03 | 1.98 | 100 | 1008.6 |
| 20260501164538 | 18 | 44 | 19.3 | 32.2 | 1.14 | 1.93 | 1.88 | 100 | 1008.8 |
| 20260501163808 | 18 | 41 | 16.1 | 29.0 | 0.99 | 1.78 | 1.73 | 100 | 1008.8 |